Time;durP1;ratioP1;P1;durP2;ratioP2;P2;SDS_P1;SDS_P2;PMS_P1;PMS_P2;Temp;Humidity;BMP_temperature;BMP_pressure;BME280_temperature;BME280_humidity;BME280_pressure;Samples;Min_cycle;Max_cycle;Signal;HPM_P1;HPM_P2
2023/06/27 00:00:49;;;;;;;10.70;9.73;;;;;;;24.78;49.98;94991.16;6173923;28;109042;-60
2023/06/27 00:03:52;;;;;;;9.77;8.87;;;;;;;24.77;50.06;94997.63;6208061;22;110637;-65
2023/06/27 00:06:55;;;;;;;8.70;7.90;;;;;;;24.79;49.87;94994.63;6175456;28;109084;-64
2023/06/27 00:09:59;;;;;;;11.77;8.07;;;;;;;24.83;49.69;94992.84;6173281;28;109094;-64
2023/06/27 00:13:03;;;;;;;8.23;7.50;;;;;;;24.85;49.63;94993.31;6179098;28;109588;-65
2023/06/27 00:16:06;;;;;;;8.73;7.80;;;;;;;24.82;49.68;94995.84;6185686;28;109924;-66
2023/06/27 00:19:10;;;;;;;11.17;9.50;;;;;;;24.79;49.68;94992.72;6195267;28;109229;-65
2023/06/27 00:22:14;;;;;;;7.47;6.77;;;;;;;24.73;49.63;94986.00;6174592;28;110202;-64
2023/06/27 00:25:17;;;;;;;7.70;6.90;;;;;;;24.74;49.57;94984.09;6177261;28;109388;-65
2023/06/27 00:28:22;;;;;;;9.57;8.30;;;;;;;24.58;49.66;94985.75;6183575;28;110001;-65
2023/06/27 00:31:25;;;;;;;8.70;7.50;;;;;;;24.38;49.96;94979.22;6188807;28;109451;-65
2023/06/27 00:34:28;;;;;;;9.07;8.17;;;;;;;24.40;50.18;94985.81;6169111;28;109216;-65
2023/06/27 00:37:31;;;;;;;8.20;7.40;;;;;;;24.54;49.95;94984.81;6185066;28;110309;-65
2023/06/27 00:40:35;;;;;;;8.90;7.90;;;;;;;24.61;49.79;94995.78;6174268;28;109511;-65
2023/06/27 00:43:40;;;;;;;7.37;6.67;;;;;;;24.61;49.48;94991.22;6173394;28;110430;-65
2023/06/27 00:46:47;;;;;;;7.10;6.50;;;;;;;24.60;49.54;94983.53;6164759;28;109176;-65
2023/06/27 00:49:50;;;;;;;7.00;6.40;;;;;;;24.60;49.21;94978.94;6188245;28;110291;-65
2023/06/27 00:52:56;;;;;;;6.90;6.30;;;;;;;24.53;49.11;94981.38;6188299;28;109257;-66
2023/06/27 00:55:59;;;;;;;6.67;6.17;;;;;;;24.57;49.52;94965.44;6183557;28;109156;-65
2023/06/27 00:59:04;;;;;;;7.27;6.60;;;;;;;24.60;49.20;94976.28;6180378;28;109361;-66
2023/06/27 01:02:08;;;;;;;8.00;7.40;;;;;;;24.67;49.28;94976.53;6181757;28;109286;-66
2023/06/27 01:05:13;;;;;;;9.40;8.70;;;;;;;24.64;49.30;94974.50;6179424;28;109085;-66
2023/06/27 01:08:24;;;;;;;8.17;7.37;;;;;;;24.56;49.02;94977.25;6172529;28;109958;-66
2023/06/27 01:11:34;;;;;;;8.17;7.50;;;;;;;24.51;49.18;94975.53;6163584;28;109474;-66
2023/06/27 01:14:45;;;;;;;7.70;7.00;;;;;;;24.56;49.24;94972.69;6177607;28;108979;-66
2023/06/27 01:17:49;;;;;;;8.77;7.87;;;;;;;24.65;49.02;94978.75;6199767;28;110170;-66
2023/06/27 01:20:52;;;;;;;8.50;7.70;;;;;;;24.63;48.88;94980.19;6175942;28;109997;-66
2023/06/27 01:23:59;;;;;;;9.07;7.60;;;;;;;24.63;48.92;94977.50;6163699;28;110089;-66
2023/06/27 01:27:02;;;;;;;9.67;8.80;;;;;;;24.53;49.05;94977.88;6180178;28;109059;-66
2023/06/27 01:30:08;;;;;;;8.20;7.40;;;;;;;24.46;48.78;94973.81;6187737;28;109203;-66
2023/06/27 01:33:19;;;;;;;9.07;6.70;;;;;;;24.39;48.97;94970.88;6178329;28;110150;-66
2023/06/27 01:36:28;;;;;;;6.83;6.33;;;;;;;24.50;48.47;94966.72;6179728;28;109949;-65
2023/06/27 01:39:38;;;;;;;8.20;7.50;;;;;;;24.43;48.84;94971.78;6186752;28;109057;-66
2023/06/27 01:42:43;;;;;;;8.13;7.40;;;;;;;24.47;48.78;94971.94;6155773;28;109992;-66
2023/06/27 01:45:47;;;;;;;8.97;8.17;;;;;;;24.44;48.62;94976.03;6181485;28;109457;-66
2023/06/27 01:48:52;;;;;;;6.33;5.83;;;;;;;24.29;49.05;94973.13;6178176;28;109097;-65
2023/06/27 01:51:56;;;;;;;7.23;6.73;;;;;;;24.42;48.86;94978.25;6185291;28;109102;-66
2023/06/27 01:55:01;;;;;;;7.90;7.30;;;;;;;24.26;49.12;94973.75;6175050;28;110486;-65
2023/06/27 01:58:04;;;;;;;7.30;6.70;;;;;;;24.33;48.90;94980.16;6183861;28;110109;-65
2023/06/27 02:01:08;;;;;;;7.63;6.93;;;;;;;24.41;49.05;94981.25;6168611;28;109122;-66
2023/06/27 02:04:12;;;;;;;8.00;7.40;;;;;;;24.45;48.70;94977.59;6159531;28;109751;-65
2023/06/27 02:07:15;;;;;;;7.90;7.20;;;;;;;24.35;48.71;94979.84;6180681;28;109056;-65
2023/06/27 02:10:20;;;;;;;8.47;7.60;;;;;;;24.38;48.73;94976.56;6198263;28;108803;-65
2023/06/27 02:13:23;;;;;;;7.57;6.87;;;;;;;24.41;48.64;94970.56;6180429;28;109238;-65
2023/06/27 02:16:26;;;;;;;7.43;6.83;;;;;;;24.33;49.03;94974.81;6158878;28;110073;-65
2023/06/27 02:19:30;;;;;;;6.90;6.30;;;;;;;24.36;48.50;94989.44;6198484;28;109033;-65
2023/06/27 02:22:33;;;;;;;6.10;5.50;;;;;;;24.41;48.59;94982.03;6187326;28;109974;-65
2023/06/27 02:25:37;;;;;;;7.20;6.57;;;;;;;24.35;48.50;94977.97;6176390;28;110040;-65
2023/06/27 02:28:41;;;;;;;8.30;6.50;;;;;;;24.26;48.73;94982.56;6189123;28;109594;-65
2023/06/27 02:31:45;;;;;;;6.30;5.70;;;;;;;24.27;48.56;94981.47;6176139;28;109070;-65
2023/06/27 02:34:48;;;;;;;7.13;6.20;;;;;;;24.36;48.48;94979.56;6173132;28;110054;-65
2023/06/27 02:37:51;;;;;;;8.90;6.40;;;;;;;24.39;48.13;94978.91;6188309;28;109066;-65
2023/06/27 02:40:55;;;;;;;6.10;5.50;;;;;;;24.28;48.18;94982.25;6178367;28;109064;-65
2023/06/27 02:43:59;;;;;;;6.77;6.20;;;;;;;24.30;48.16;94986.16;6173194;28;109072;-65
2023/06/27 02:47:02;;;;;;;7.30;6.40;;;;;;;24.36;48.32;94976.88;6169656;28;109735;-65
2023/06/27 02:50:06;;;;;;;7.00;6.50;;;;;;;24.28;48.03;94975.00;6156283;28;110031;-61
2023/06/27 02:53:10;;;;;;;6.53;5.93;;;;;;;24.33;47.68;94985.53;6166582;28;110751;-65
2023/06/27 02:56:14;;;;;;;7.90;6.40;;;;;;;24.32;48.25;94978.59;6172469;28;109302;-64
2023/06/27 02:59:17;;;;;;;6.73;6.03;;;;;;;24.37;47.77;94981.13;6170300;28;110167;-66
2023/06/27 03:02:21;;;;;;;6.57;6.07;;;;;;;24.41;47.98;94984.72;6156999;28;110373;-66
2023/06/27 03:05:24;;;;;;;12.83;6.97;;;;;;;24.42;48.17;94980.16;6182531;28;109853;-66
2023/06/27 03:08:27;;;;;;;6.40;5.80;;;;;;;24.33;47.86;94980.16;6175986;28;109071;-66
2023/06/27 03:11:32;;;;;;;6.93;6.23;;;;;;;24.28;47.80;94976.91;6196962;28;109194;-67
2023/06/27 03:14:35;;;;;;;6.83;6.00;;;;;;;24.17;47.76;94979.13;6178587;28;109327;-66
2023/06/27 03:17:38;;;;;;;6.47;5.87;;;;;;;23.79;48.17;94971.84;6189340;28;109063;-66
2023/06/27 03:20:44;;;;;;;7.30;6.20;;;;;;;23.86;48.40;94980.16;6186115;28;109382;-67
2023/06/27 03:23:48;;;;;;;9.37;6.10;;;;;;;24.11;48.11;94988.44;6163304;28;109977;-66
2023/06/27 03:26:52;;;;;;;13.57;12.40;;;;;;;24.22;47.64;94989.66;6161301;28;109021;-66
2023/06/27 03:29:58;;;;;;;47.13;33.70;;;;;;;24.20;48.12;94991.88;6194917;28;110117;-66
2023/06/27 03:33:02;;;;;;;17.20;15.70;;;;;;;23.85;47.81;94986.59;6170127;28;109350;-67
2023/06/27 03:36:05;;;;;;;14.77;13.47;;;;;;;23.51;48.87;94987.41;6171934;28;109202;-67
2023/06/27 03:39:09;;;;;;;18.20;16.60;;;;;;;23.75;48.75;94992.28;6181023;28;109207;-67
2023/06/27 03:42:15;;;;;;;23.37;21.00;;;;;;;23.90;48.65;94988.31;6184972;28;109988;-66
2023/06/27 03:45:19;;;;;;;14.90;13.40;;;;;;;23.97;48.55;94993.94;6174484;28;110026;-67
2023/06/27 03:48:22;;;;;;;9.70;8.90;;;;;;;23.81;48.64;94999.00;6153370;28;109090;-67
2023/06/27 03:51:27;;;;;;;9.40;8.50;;;;;;;23.60;49.33;94998.13;6179523;28;108986;-66
2023/06/27 03:54:30;;;;;;;10.17;9.23;;;;;;;23.78;49.29;94996.19;6177508;28;110709;-68
2023/06/27 03:57:35;;;;;;;26.60;24.10;;;;;;;23.84;49.05;94997.59;6184908;28;109034;-66
2023/06/27 04:00:39;;;;;;;13.53;11.53;;;;;;;23.86;48.88;94998.88;6167245;28;109785;-68
2023/06/27 04:03:42;;;;;;;11.13;8.43;;;;;;;23.88;48.70;95009.25;6166282;28;109029;-67
2023/06/27 04:06:45;;;;;;;20.83;8.80;;;;;;;23.78;49.76;94996.19;6176249;28;109471;-68
2023/06/27 04:09:48;;;;;;;10.60;9.27;;;;;;;23.86;50.43;95009.56;6168512;28;108784;-65
2023/06/27 04:12:54;;;;;;;9.43;8.50;;;;;;;23.65;50.24;95011.28;6180736;28;109459;-66
2023/06/27 04:15:58;;;;;;;9.67;8.70;;;;;;;23.72;50.93;95011.63;6169018;28;109212;-67
2023/06/27 04:19:03;;;;;;;9.50;7.97;;;;;;;23.94;49.70;95013.31;6182705;28;110088;-68
2023/06/27 04:22:06;;;;;;;10.40;7.97;;;;;;;23.93;49.97;95008.28;6152598;28;110010;-67
2023/06/27 04:25:11;;;;;;;11.23;8.57;;;;;;;23.95;49.78;95014.09;6161123;28;110084;-68
2023/06/27 04:28:15;;;;;;;11.70;9.23;;;;;;;24.01;49.86;95015.50;6162918;28;109081;-67
2023/06/27 04:31:19;;;;;;;12.27;9.10;;;;;;;24.03;49.70;95010.66;6164919;28;109096;-67
2023/06/27 04:34:22;;;;;;;11.80;10.43;;;;;;;24.06;50.11;95020.72;6153429;28;109020;-67
2023/06/27 04:37:26;;;;;;;12.23;11.13;;;;;;;24.06;49.99;95018.03;6186344;28;109202;-67
2023/06/27 04:40:29;;;;;;;15.97;14.10;;;;;;;24.07;50.11;95019.59;6214319;28;110069;-67
2023/06/27 04:43:34;;;;;;;12.63;11.53;;;;;;;24.07;49.98;95020.38;6207631;28;110106;-66
2023/06/27 04:46:39;;;;;;;13.63;12.47;;;;;;;24.09;50.29;95020.06;6208046;28;109109;-66
2023/06/27 04:49:43;;;;;;;15.23;13.70;;;;;;;24.09;50.65;95022.72;6213866;28;108897;-67
2023/06/27 04:52:46;;;;;;;13.30;12.20;;;;;;;24.11;50.35;95023.19;6213865;28;110009;-67
2023/06/27 04:55:50;;;;;;;12.53;11.43;;;;;;;24.11;50.45;95020.53;6202494;28;109505;-67
2023/06/27 04:58:55;;;;;;;12.50;11.20;;;;;;;24.12;50.46;95020.19;6213325;28;109287;-66
2023/06/27 05:01:58;;;;;;;12.07;10.43;;;;;;;24.12;50.07;95022.09;6212544;28;109164;-67
2023/06/27 05:05:01;;;;;;;10.33;8.73;;;;;;;24.12;50.47;95027.44;6213367;28;108845;-67
2023/06/27 05:08:05;;;;;;;9.33;8.57;;;;;;;24.14;50.62;95027.91;6187141;28;109114;-67
2023/06/27 05:11:08;;;;;;;11.03;9.07;;;;;;;24.17;50.57;95025.38;6188833;28;110238;-67
2023/06/27 05:14:14;;;;;;;15.00;11.87;;;;;;;24.19;50.62;95017.03;6187909;28;109403;-67
2023/06/27 05:17:17;;;;;;;16.30;14.90;;;;;;;24.20;50.31;95021.31;6183355;28;109479;-67
2023/06/27 05:20:22;;;;;;;12.73;11.60;;;;;;;24.19;51.00;95025.06;6182417;28;109906;-67
2023/06/27 05:23:25;;;;;;;12.30;11.23;;;;;;;24.24;50.86;95026.78;6188077;28;109377;-67
2023/06/27 05:26:28;;;;;;;10.83;9.87;;;;;;;24.23;50.76;95028.69;6188361;28;109022;-67
2023/06/27 05:29:33;;;;;;;10.50;9.50;;;;;;;24.27;50.83;95026.94;6178180;28;109522;-67
2023/06/27 05:32:36;;;;;;;9.80;8.70;;;;;;;24.28;51.18;95033.06;6166955;28;109403;-67
2023/06/27 05:35:40;;;;;;;9.93;9.07;;;;;;;24.31;50.99;95025.19;6163369;28;108841;-67
2023/06/27 05:38:43;;;;;;;9.67;8.77;;;;;;;24.37;51.06;95033.84;6205511;28;109081;-67
2023/06/27 05:41:46;;;;;;;9.90;8.53;;;;;;;24.44;50.93;95031.44;6200974;28;109313;-67
2023/06/27 05:44:51;;;;;;;9.50;8.57;;;;;;;24.49;50.93;95025.88;6211657;28;109160;-67
2023/06/27 05:47:54;;;;;;;9.43;8.40;;;;;;;24.56;50.79;95028.88;6212192;28;109070;-66
2023/06/27 05:50:57;;;;;;;9.13;8.23;;;;;;;24.62;50.60;95034.81;6212374;28;109102;-66
2023/06/27 05:54:00;;;;;;;11.57;7.10;;;;;;;24.68;50.30;95028.97;6202467;28;108843;-66
2023/06/27 05:57:04;;;;;;;9.30;8.30;;;;;;;24.75;50.24;95028.50;6211988;28;109162;-67
2023/06/27 06:00:10;;;;;;;8.27;7.43;;;;;;;24.82;50.22;95038.69;6212450;28;109255;-67
2023/06/27 06:03:14;;;;;;;8.17;7.43;;;;;;;24.89;50.08;95038.97;6204860;28;110757;-60
2023/06/27 06:06:18;;;;;;;8.40;7.80;;;;;;;24.95;50.22;95033.09;6208546;28;109898;-67
2023/06/27 06:09:21;;;;;;;8.10;7.30;;;;;;;25.03;50.07;95031.47;6187421;28;109045;-67
2023/06/27 06:12:24;;;;;;;9.10;8.20;;;;;;;25.08;49.93;95034.75;6187519;28;109003;-66
2023/06/27 06:15:29;;;;;;;8.47;7.63;;;;;;;25.19;49.82;95034.34;6175564;28;109062;-66
2023/06/27 06:18:32;;;;;;;8.00;7.30;;;;;;;25.25;49.67;95027.72;6186917;28;109041;-66
2023/06/27 06:21:37;;;;;;;8.10;7.30;;;;;;;25.28;49.63;95027.84;6187341;28;108830;-67
2023/06/27 06:24:40;;;;;;;9.27;7.73;;;;;;;25.33;49.73;95024.19;6186771;28;109034;-66
2023/06/27 06:27:43;;;;;;;8.20;7.50;;;;;;;25.40;49.63;95021.81;6175620;28;109316;-66
2023/06/27 06:30:48;;;;;;;8.20;7.50;;;;;;;25.45;49.57;95018.13;6167326;28;110057;-67
2023/06/27 06:33:51;;;;;;;8.17;7.33;;;;;;;25.50;49.58;95024.06;6162365;28;109961;-66
2023/06/27 06:36:54;;;;;;;8.03;7.23;;;;;;;25.52;49.52;95013.03;6169079;28;110408;-66
2023/06/27 06:39:57;;;;;;;8.53;7.67;;;;;;;25.57;48.81;95020.88;6206320;28;109550;-66
2023/06/27 06:43:00;;;;;;;8.00;7.33;;;;;;;25.64;49.21;95016.53;6210964;28;109156;-66
2023/06/27 06:46:05;;;;;;;7.70;7.00;;;;;;;25.64;49.12;95010.41;6210252;28;108990;-66
2023/06/27 06:49:09;;;;;;;7.60;6.80;;;;;;;25.66;49.12;95005.50;6200794;28;109220;-65
2023/06/27 06:52:12;;;;;;;8.80;6.90;;;;;;;25.64;48.59;94999.69;6210522;28;110057;-64
2023/06/27 06:55:15;;;;;;;8.13;7.43;;;;;;;25.64;48.80;95007.72;6209601;28;109013;-67
2023/06/27 06:58:18;;;;;;;7.60;6.90;;;;;;;25.71;48.57;95005.31;6210407;28;109105;-66
2023/06/27 07:01:23;;;;;;;9.47;7.40;;;;;;;25.77;48.64;95008.56;6198752;28;109126;-66
2023/06/27 07:04:26;;;;;;;7.70;7.00;;;;;;;25.87;48.22;95002.75;6210775;28;109038;-66
2023/06/27 07:07:29;;;;;;;8.13;7.43;;;;;;;25.87;48.40;95008.13;6201072;28;108775;-66
2023/06/27 07:10:33;;;;;;;6.50;5.90;;;;;;;25.86;48.31;95006.56;6186172;28;109390;-66
2023/06/27 07:13:36;;;;;;;7.80;7.00;;;;;;;25.94;48.36;95005.72;6175510;28;110310;-66
2023/06/27 07:16:40;;;;;;;7.03;6.37;;;;;;;25.95;48.07;95002.69;6185623;28;110004;-66
2023/06/27 07:19:44;;;;;;;7.60;6.90;;;;;;;26.03;47.82;95006.41;6186254;28;109068;-67
2023/06/27 07:22:47;;;;;;;7.87;7.13;;;;;;;26.11;47.94;94997.50;6180447;28;110187;-66
2023/06/27 07:25:50;;;;;;;7.77;6.73;;;;;;;26.09;47.92;94994.38;6181877;28;109138;-67
2023/06/27 07:28:53;;;;;;;7.20;6.60;;;;;;;26.10;47.76;94987.13;6185777;28;109353;-67
2023/06/27 07:31:58;;;;;;;7.67;6.97;;;;;;;26.16;48.00;94983.88;6186098;28;108599;-66
2023/06/27 07:35:01;;;;;;;7.80;7.10;;;;;;;26.20;47.54;94992.03;6174867;28;110452;-66
2023/06/27 07:38:04;;;;;;;6.87;6.30;;;;;;;26.27;48.06;94989.59;6200870;28;109377;-66
2023/06/27 07:41:07;;;;;;;7.70;7.07;;;;;;;26.24;47.85;94984.91;6210272;28;109159;-67
2023/06/27 07:44:10;;;;;;;8.00;7.30;;;;;;;26.27;47.56;94990.38;6210440;28;108981;-67
2023/06/27 07:47:14;;;;;;;7.70;7.00;;;;;;;26.28;47.97;94997.31;6198318;28;109087;-66
2023/06/27 07:50:18;;;;;;;11.80;7.03;;;;;;;26.39;47.36;94999.56;6210399;28;110089;-67
2023/06/27 07:53:21;;;;;;;8.00;7.27;;;;;;;26.42;47.68;94998.91;6210491;28;110049;-67
2023/06/27 07:56:24;;;;;;;7.83;7.13;;;;;;;26.41;47.36;94994.66;6205400;28;109006;-65
2023/06/27 07:59:27;;;;;;;7.10;6.50;;;;;;;26.44;47.51;95004.72;6204980;28;109985;-66
2023/06/27 08:02:31;;;;;;;8.47;7.67;;;;;;;26.52;47.17;95001.13;6210879;28;109078;-66
2023/06/27 08:05:38;;;;;;;8.80;8.07;;;;;;;26.54;47.49;94999.66;6214140;28;109270;-66
2023/06/27 08:08:44;;;;;;;9.07;7.97;;;;;;;26.56;47.72;95000.13;6183152;28;110583;-66
2023/06/27 08:11:47;;;;;;;8.67;7.77;;;;;;;26.62;47.71;95000.69;6189721;28;109044;-66
2023/06/27 08:14:50;;;;;;;7.30;6.70;;;;;;;26.62;47.34;94995.31;6189767;28;110305;-67
2023/06/27 08:17:54;;;;;;;8.40;7.50;;;;;;;26.63;47.59;94990.72;6189053;28;109846;-67
2023/06/27 08:20:57;;;;;;;7.23;6.57;;;;;;;26.65;47.60;94993.88;6178502;28;110106;-66
2023/06/27 08:24:01;;;;;;;8.20;7.20;;;;;;;26.68;47.40;94993.22;6189206;28;109056;-66
2023/06/27 08:27:04;;;;;;;7.57;6.87;;;;;;;26.71;46.97;94987.94;6189124;28;109155;-68
2023/06/27 08:30:09;;;;;;;7.50;6.80;;;;;;;26.68;47.67;94988.63;6189550;28;108766;-66
2023/06/27 08:33:14;;;;;;;8.10;7.40;;;;;;;26.66;47.37;94990.88;6178664;28;109011;-66
2023/06/27 08:36:17;;;;;;;8.53;7.03;;;;;;;26.69;47.56;94987.50;6188685;28;109039;-67
2023/06/27 08:39:20;;;;;;;8.00;7.30;;;;;;;26.67;47.42;94981.69;6164849;28;109185;-67
2023/06/27 08:42:23;;;;;;;8.70;7.87;;;;;;;26.65;47.61;94993.88;6157137;28;110152;-65
2023/06/27 08:45:27;;;;;;;10.30;9.43;;;;;;;26.67;47.49;94987.06;6163088;28;110647;-66
2023/06/27 08:48:31;;;;;;;9.67;8.73;;;;;;;26.75;46.75;94982.72;6163726;28;110033;-66
2023/06/27 08:51:36;;;;;;;10.20;9.33;;;;;;;26.75;46.78;94983.50;6163797;28;109081;-66
2023/06/27 08:54:46;;;;;;;12.10;11.07;;;;;;;26.70;46.76;94980.22;6152835;28;109223;-66
2023/06/27 08:57:49;;;;;;;14.33;12.90;;;;;;;26.68;47.06;94975.19;6164495;28;110131;-66
2023/06/27 09:00:54;;;;;;;13.83;12.63;;;;;;;26.69;46.72;94975.97;6164296;28;109354;-67
2023/06/27 09:04:00;;;;;;;12.10;11.07;;;;;;;26.71;46.62;94974.53;6163585;28;110389;-66
2023/06/27 09:07:06;;;;;;;12.20;11.20;;;;;;;26.73;46.68;94977.69;6166061;28;109058;-66
2023/06/27 09:10:11;;;;;;;12.43;11.33;;;;;;;26.74;46.48;94965.81;6213117;28;109054;-66
2023/06/27 09:13:15;;;;;;;10.73;9.83;;;;;;;26.79;45.65;94967.47;6212812;28;111191;-66
2023/06/27 09:16:19;;;;;;;9.93;9.13;;;;;;;26.78;46.46;94971.28;6207590;28;109064;-67
2023/06/27 09:19:24;;;;;;;9.83;9.00;;;;;;;26.72;46.27;94968.06;6208559;28;110288;-66
2023/06/27 09:22:27;;;;;;;9.80;9.00;;;;;;;26.68;46.32;94972.50;6213403;28;109357;-66
2023/06/27 09:25:30;;;;;;;8.90;8.20;;;;;;;26.69;45.96;94979.44;6213902;28;110323;-66
2023/06/27 09:28:44;;;;;;;9.37;8.57;;;;;;;26.67;46.56;94968.28;6202919;28;110142;-70
2023/06/27 09:31:47;;;;;;;9.03;8.33;;;;;;;26.69;45.80;94976.75;6214335;28;110012;-67
2023/06/27 09:34:53;;;;;;;10.03;9.17;;;;;;;26.72;46.22;94968.06;6213508;28;109044;-66
2023/06/27 09:38:05;;;;;;;9.87;9.07;;;;;;;26.75;45.85;94967.38;6200403;28;110401;-66
2023/06/27 09:41:13;;;;;;;8.77;8.07;;;;;;;26.74;46.30;94967.72;6178196;28;109767;-66
2023/06/27 09:44:18;;;;;;;8.10;7.40;;;;;;;26.77;46.10;94969.72;6189117;28;109838;-68
2023/06/27 09:47:25;;;;;;;8.70;7.90;;;;;;;26.72;45.76;94975.34;6188129;28;109261;-66
2023/06/27 09:50:31;;;;;;;8.90;8.10;;;;;;;26.67;46.44;94970.94;6181017;28;108914;-63
2023/06/27 09:53:34;;;;;;;8.60;7.80;;;;;;;26.66;45.85;94972.06;6185605;28;109101;-66
2023/06/27 09:56:37;;;;;;;7.50;6.90;;;;;;;26.67;45.65;94970.94;6187794;28;109134;-66
2023/06/27 09:59:41;;;;;;;7.13;6.63;;;;;;;26.68;45.69;94967.16;6187789;28;110160;-67
2023/06/27 10:02:47;;;;;;;7.13;6.53;;;;;;;26.69;45.67;94960.66;6176951;28;110673;-66
2023/06/27 10:05:51;;;;;;;7.60;7.00;;;;;;;26.69;45.97;94970.63;6188110;28;109437;-67
2023/06/27 10:09:10;;;;;;;6.90;6.20;;;;;;;26.73;45.32;94963.47;6210826;28;110112;-67
2023/06/27 10:12:15;;;;;;;6.77;6.23;;;;;;;26.69;45.30;94967.94;6212094;28;108993;-67
2023/06/27 10:15:19;;;;;;;6.33;5.83;;;;;;;26.66;45.44;94953.28;6200877;28;110243;-67
2023/06/27 10:18:22;;;;;;;6.87;6.30;;;;;;;26.56;45.45;94962.56;6212115;28;109046;-67
2023/06/27 10:21:28;;;;;;;6.80;6.20;;;;;;;26.59;45.59;94955.72;6211177;28;109443;-66
2023/06/27 10:24:33;;;;;;;6.63;6.13;;;;;;;26.55;45.74;94962.91;6205965;28;109179;-66
2023/06/27 10:27:39;;;;;;;6.50;6.00;;;;;;;26.52;45.70;94964.31;6208256;28;109064;-67
2023/06/27 10:30:46;;;;;;;6.50;5.90;;;;;;;26.53;45.84;94959.75;6211541;28;109446;-66
2023/06/27 10:33:50;;;;;;;6.20;5.70;;;;;;;26.55;45.96;94950.25;6211884;28;109228;-67
2023/06/27 10:37:02;;;;;;;6.20;5.70;;;;;;;26.58;44.86;94952.25;6196202;28;110291;-66
2023/06/27 10:40:08;;;;;;;6.47;5.87;;;;;;;26.59;45.24;94947.69;6187205;28;110167;-66
2023/06/27 10:43:37;;;;;;;6.93;6.20;;;;;;;26.56;44.80;94941.09;6187355;28;109352;-66
2023/06/27 10:46:41;;;;;;;6.17;5.57;;;;;;;26.55;45.15;94931.47;6185020;28;109289;-65
2023/06/27 10:49:47;;;;;;;6.17;5.67;;;;;;;26.47;45.44;94936.94;6179043;28;109024;-67
2023/06/27 10:53:03;;;;;;;5.90;5.40;;;;;;;26.45;45.38;94926.53;6185518;28;109411;-67
2023/06/27 10:56:16;;;;;;;6.90;6.03;;;;;;;26.44;45.69;94929.56;6186227;28;109345;-67
2023/06/27 10:59:21;;;;;;;6.17;5.67;;;;;;;26.46;45.16;94936.16;6175467;28;109112;-67
2023/06/27 11:02:33;;;;;;;5.50;5.10;;;;;;;26.41;45.05;94927.56;6185412;28;109060;-67
2023/06/27 11:05:49;;;;;;;5.30;4.87;;;;;;;26.43;45.38;94934.16;6186470;28;109040;-67
2023/06/27 11:08:58;;;;;;;5.97;5.47;;;;;;;26.48;44.75;94925.88;6206883;28;109195;-66
2023/06/27 11:12:11;;;;;;;5.80;5.40;;;;;;;26.43;44.66;94923.41;6199245;28;109069;-66
2023/06/27 11:15:15;;;;;;;5.60;5.10;;;;;;;26.44;44.45;94924.97;6210975;28;109243;-66
2023/06/27 11:18:19;;;;;;;5.40;5.00;;;;;;;26.41;44.88;94911.47;6211138;28;110073;-67
2023/06/27 11:21:23;;;;;;;5.87;5.27;;;;;;;26.47;44.46;94912.78;6205790;28;109075;-66
2023/06/27 11:24:29;;;;;;;5.80;5.30;;;;;;;26.42;44.67;94904.97;6206058;28;109354;-67
2023/06/27 11:27:32;;;;;;;5.60;5.10;;;;;;;26.44;44.65;94913.47;6210733;28;109093;-66
2023/06/27 11:30:35;;;;;;;5.73;5.23;;;;;;;26.41;44.86;94904.19;6210552;28;109071;-66
2023/06/27 11:33:39;;;;;;;5.50;5.10;;;;;;;26.39;44.80;94905.66;6199003;28;109296;-66
2023/06/27 11:36:42;;;;;;;5.80;5.30;;;;;;;26.33;44.88;94901.63;6209699;28;109269;-66
2023/06/27 11:39:54;;;;;;;5.50;5.10;;;;;;;26.37;44.99;94903.28;6209910;28;109102;-67
2023/06/27 11:43:02;;;;;;;5.30;4.90;;;;;;;26.32;45.09;94892.78;6210752;28;110381;-67
2023/06/27 11:46:05;;;;;;;5.27;4.87;;;;;;;26.33;44.98;94896.25;6199529;28;109115;-66
2023/06/27 11:49:08;;;;;;;5.97;5.47;;;;;;;26.32;45.17;94900.06;6210500;28;108967;-66
2023/06/27 11:52:11;;;;;;;5.97;5.47;;;;;;;26.32;44.29;94900.06;6210522;28;110034;-66
2023/06/27 11:55:16;;;;;;;6.13;5.63;;;;;;;26.30;44.45;94896.94;6204227;28;109367;-66
2023/06/27 11:58:27;;;;;;;6.30;5.80;;;;;;;26.33;44.93;94894.34;6205368;28;109353;-67
2023/06/27 12:01:33;;;;;;;5.50;5.10;;;;;;;26.38;44.87;94890.66;6210024;28;108785;-66
2023/06/27 12:04:36;;;;;;;5.50;5.10;;;;;;;26.36;44.82;94882.94;6210103;28;109075;-66
2023/06/27 12:07:39;;;;;;;5.43;5.03;;;;;;;26.31;44.56;94882.38;6189444;28;110224;-67
2023/06/27 12:10:55;;;;;;;5.60;5.10;;;;;;;26.30;44.59;94878.16;6185129;28;109095;-66
2023/06/27 12:13:58;;;;;;;5.80;5.40;;;;;;;26.28;44.06;94875.81;6185702;28;110498;-67
2023/06/27 12:17:02;;;;;;;5.73;5.13;;;;;;;26.26;44.51;94872.69;6185205;28;109016;-65
2023/06/27 12:20:07;;;;;;;5.70;5.23;;;;;;;26.28;44.39;94871.22;6174155;28;109194;-66
2023/06/27 12:23:10;;;;;;;5.33;4.93;;;;;;;26.25;44.50;94868.44;6185259;28;109452;-66
2023/06/27 12:26:15;;;;;;;6.20;5.70;;;;;;;26.25;44.30;94869.22;6184354;28;109113;-67
2023/06/27 12:29:18;;;;;;;6.30;5.70;;;;;;;26.22;44.17;94866.44;6179786;28;109041;-67
2023/06/27 12:32:22;;;;;;;5.77;5.27;;;;;;;26.22;44.66;94858.38;6179402;28;111344;-66
2023/06/27 12:35:25;;;;;;;5.10;4.70;;;;;;;26.21;44.21;94860.28;6185074;28;110066;-66
2023/06/27 12:38:28;;;;;;;5.37;4.97;;;;;;;26.19;44.51;94851.75;6200875;28;109040;-66
2023/06/27 12:41:33;;;;;;;5.90;5.40;;;;;;;26.19;44.69;94850.97;6197734;28;109034;-66
2023/06/27 12:44:36;;;;;;;4.93;4.53;;;;;;;26.18;44.36;94852.88;6209283;28;109562;-66
2023/06/27 12:47:41;;;;;;;5.30;4.90;;;;;;;26.19;44.18;94854.44;6209491;28;109352;-66
2023/06/27 12:50:44;;;;;;;5.53;5.03;;;;;;;26.19;44.51;94849.06;6212243;28;109183;-66
2023/06/27 12:53:48;;;;;;;5.63;5.13;;;;;;;26.23;44.29;94850.00;6202886;28;109454;-66
2023/06/27 12:56:52;;;;;;;5.83;5.33;;;;;;;26.18;44.23;94847.50;6212282;28;109040;-66
2023/06/27 12:59:55;;;;;;;5.97;5.47;;;;;;;26.22;44.28;94840.38;6213497;28;109534;-66
2023/06/27 13:02:59;;;;;;;5.27;4.87;;;;;;;26.19;44.46;94824.94;6212152;28;110029;-65
2023/06/27 13:06:19;;;;;;;5.60;5.20;;;;;;;26.20;44.84;94834.53;6207928;28;110053;-66
2023/06/27 13:09:22;;;;;;;5.50;5.10;;;;;;;26.20;44.58;94831.88;6189108;28;109024;-67
2023/06/27 13:12:27;;;;;;;5.30;4.80;;;;;;;26.22;44.63;94836.91;6187935;28;109215;-66
2023/06/27 13:15:30;;;;;;;5.77;5.27;;;;;;;26.20;44.78;94831.88;6178325;28;110298;-61
2023/06/27 13:18:44;;;;;;;5.67;5.17;;;;;;;26.16;44.84;94827.50;6188196;28;109290;-66
2023/06/27 13:21:48;;;;;;;5.77;5.30;;;;;;;26.15;44.78;94829.41;6188019;28;109455;-66
2023/06/27 13:24:51;;;;;;;5.53;5.10;;;;;;;26.18;43.92;94831.41;6187673;28;109187;-65
2023/06/27 13:27:58;;;;;;;6.93;5.27;;;;;;;26.17;44.47;94821.03;6175834;28;110148;-66
2023/06/27 13:31:01;;;;;;;6.30;5.80;;;;;;;26.17;44.65;94818.34;6187570;28;109073;-66
2023/06/27 13:34:05;;;;;;;5.80;5.40;;;;;;;26.18;44.60;94820.69;6187993;28;110184;-66
2023/06/27 13:37:08;;;;;;;5.40;4.90;;;;;;;26.19;44.12;94827.63;6190124;28;110677;-60
2023/06/27 13:40:11;;;;;;;5.27;4.87;;;;;;;26.21;43.93;94824.59;6204269;28;109358;-66
2023/06/27 13:43:16;;;;;;;5.40;5.00;;;;;;;26.20;44.07;94807.72;6211922;28;109036;-66
2023/06/27 13:46:19;;;;;;;5.10;4.70;;;;;;;26.22;43.74;94808.19;6211882;28;109069;-66
2023/06/27 13:49:24;;;;;;;5.70;5.30;;;;;;;26.19;44.04;94808.06;6201898;28;109984;-67
2023/06/27 13:52:28;;;;;;;5.70;5.20;;;;;;;26.19;43.62;94805.38;6211739;28;109193;-67
2023/06/27 13:55:31;;;;;;;5.57;5.17;;;;;;;26.21;43.79;94798.59;6212312;28;110348;-67
2023/06/27 13:58:35;;;;;;;5.43;4.93;;;;;;;26.22;43.74;94804.72;6210976;28;109403;-67
2023/06/27 14:01:39;;;;;;;5.40;4.90;;;;;;;26.25;42.59;94802.16;6200371;28;110203;-66
2023/06/27 14:04:42;;;;;;;6.40;5.80;;;;;;;26.25;42.83;94810.19;6212274;28;109408;-66
2023/06/27 14:07:45;;;;;;;5.63;5.23;;;;;;;26.20;43.26;94796.22;6201945;28;110040;-66
2023/06/27 14:10:49;;;;;;;5.20;4.80;;;;;;;26.20;43.28;94796.22;6186776;28;108923;-66
2023/06/27 14:13:54;;;;;;;5.30;4.90;;;;;;;26.21;43.53;94790.53;6175385;28;109156;-67